sensor_id;sensor_type;location;lat;lon;timestamp;pressure;altitude;pressure_sealevel;temperature;humidity
79705;BME280;69940;53.120;8.764;2023-07-29T00:00:46;100752.00;;;19.80;87.68
79705;BME280;69940;53.120;8.764;2023-07-29T00:03:16;100750.00;;;19.78;87.78
79705;BME280;69940;53.120;8.764;2023-07-29T00:05:46;100746.00;;;19.77;87.85
79705;BME280;69940;53.120;8.764;2023-07-29T00:08:16;100742.00;;;19.77;87.92
79705;BME280;69940;53.120;8.764;2023-07-29T00:10:46;100737.00;;;19.77;87.86
79705;BME280;69940;53.120;8.764;2023-07-29T00:13:16;100733.00;;;19.77;87.85
79705;BME280;69940;53.120;8.764;2023-07-29T00:15:46;100728.00;;;19.76;87.84
79705;BME280;69940;53.120;8.764;2023-07-29T00:18:16;100725.00;;;19.75;87.75
79705;BME280;69940;53.120;8.764;2023-07-29T00:20:46;100723.00;;;19.74;87.78
79705;BME280;69940;53.120;8.764;2023-07-29T00:23:17;100719.00;;;19.73;87.84
79705;BME280;69940;53.120;8.764;2023-07-29T00:25:46;100716.00;;;19.71;87.81
79705;BME280;69940;53.120;8.764;2023-07-29T00:28:16;100714.00;;;19.68;87.84
79705;BME280;69940;53.120;8.764;2023-07-29T00:30:45;100712.00;;;19.64;88.03
79705;BME280;69940;53.120;8.764;2023-07-29T00:33:16;100711.00;;;19.60;88.22
79705;BME280;69940;53.120;8.764;2023-07-29T00:35:46;100712.00;;;19.56;88.26
79705;BME280;69940;53.120;8.764;2023-07-29T00:38:16;100712.00;;;19.53;88.35
79705;BME280;69940;53.120;8.764;2023-07-29T00:40:46;100710.00;;;19.51;88.42
79705;BME280;69940;53.120;8.764;2023-07-29T00:43:16;100709.00;;;19.50;88.49
79705;BME280;69940;53.120;8.764;2023-07-29T00:45:46;100708.00;;;19.51;88.41
79705;BME280;69940;53.120;8.764;2023-07-29T00:48:16;100707.00;;;19.52;88.42
79705;BME280;69940;53.120;8.764;2023-07-29T00:50:46;100706.00;;;19.52;88.28
79705;BME280;69940;53.120;8.764;2023-07-29T00:53:16;100705.00;;;19.53;88.23
79705;BME280;69940;53.120;8.764;2023-07-29T00:55:46;100704.00;;;19.53;88.28
79705;BME280;69940;53.120;8.764;2023-07-29T00:58:16;100704.00;;;19.52;88.29
79705;BME280;69940;53.120;8.764;2023-07-29T01:00:46;100706.00;;;19.51;88.35
79705;BME280;69940;53.120;8.764;2023-07-29T01:03:17;100705.00;;;19.49;88.28
79705;BME280;69940;53.120;8.764;2023-07-29T01:08:43;100706.00;;;19.48;88.30
79705;BME280;69940;53.120;8.764;2023-07-29T01:13:33;100708.00;;;19.49;88.37
79705;BME280;69940;53.120;8.764;2023-07-29T01:18:27;100707.00;;;19.51;88.25
79705;BME280;69940;53.120;8.764;2023-07-29T01:20:47;100708.00;;;19.51;88.23
79705;BME280;69940;53.120;8.764;2023-07-29T01:23:16;100709.00;;;19.50;88.29
79705;BME280;69940;53.120;8.764;2023-07-29T01:25:46;100708.00;;;19.49;88.34
79705;BME280;69940;53.120;8.764;2023-07-29T01:28:16;100709.00;;;19.48;88.25
79705;BME280;69940;53.120;8.764;2023-07-29T01:30:49;100709.00;;;19.48;88.26
79705;BME280;69940;53.120;8.764;2023-07-29T01:33:26;100708.00;;;19.48;88.22
79705;BME280;69940;53.120;8.764;2023-07-29T01:35:53;100706.00;;;19.48;88.17
79705;BME280;69940;53.120;8.764;2023-07-29T01:38:33;100705.00;;;19.47;88.16
79705;BME280;69940;53.120;8.764;2023-07-29T01:40:48;100702.00;;;19.46;88.10
79705;BME280;69940;53.120;8.764;2023-07-29T01:43:16;100699.00;;;19.45;88.06
79705;BME280;69940;53.120;8.764;2023-07-29T01:45:46;100696.00;;;19.42;88.15
79705;BME280;69940;53.120;8.764;2023-07-29T01:48:16;100695.00;;;19.39;88.19
79705;BME280;69940;53.120;8.764;2023-07-29T01:50:46;100693.00;;;19.37;88.28
79705;BME280;69940;53.120;8.764;2023-07-29T01:53:16;100691.00;;;19.34;88.26
79705;BME280;69940;53.120;8.764;2023-07-29T01:55:46;100690.00;;;19.32;88.23
79705;BME280;69940;53.120;8.764;2023-07-29T01:58:16;100689.00;;;19.29;88.24
79705;BME280;69940;53.120;8.764;2023-07-29T02:00:46;100687.00;;;19.28;88.22
79705;BME280;69940;53.120;8.764;2023-07-29T02:03:16;100687.00;;;19.27;88.18
79705;BME280;69940;53.120;8.764;2023-07-29T02:05:46;100687.00;;;19.26;88.19
79705;BME280;69940;53.120;8.764;2023-07-29T02:08:16;100688.00;;;19.26;88.04
79705;BME280;69940;53.120;8.764;2023-07-29T02:10:46;100688.00;;;19.25;88.04
79705;BME280;69940;53.120;8.764;2023-07-29T02:13:16;100687.00;;;19.24;87.98
79705;BME280;69940;53.120;8.764;2023-07-29T02:15:46;100685.00;;;19.23;88.11
79705;BME280;69940;53.120;8.764;2023-07-29T02:18:16;100683.00;;;19.23;88.10
79705;BME280;69940;53.120;8.764;2023-07-29T02:20:50;100682.00;;;19.21;88.05
79705;BME280;69940;53.120;8.764;2023-07-29T02:23:16;100680.00;;;19.20;88.06
79705;BME280;69940;53.120;8.764;2023-07-29T02:25:46;100679.00;;;19.19;88.09
79705;BME280;69940;53.120;8.764;2023-07-29T02:28:16;100677.00;;;19.17;88.12
79705;BME280;69940;53.120;8.764;2023-07-29T02:30:45;100676.00;;;19.17;88.11
79705;BME280;69940;53.120;8.764;2023-07-29T02:33:16;100673.00;;;19.16;88.01
79705;BME280;69940;53.120;8.764;2023-07-29T02:35:46;100671.00;;;19.15;87.97
79705;BME280;69940;53.120;8.764;2023-07-29T02:38:16;100671.00;;;19.13;88.14
79705;BME280;69940;53.120;8.764;2023-07-29T02:40:46;100669.00;;;19.12;88.00
79705;BME280;69940;53.120;8.764;2023-07-29T02:43:16;100667.00;;;19.10;88.08
79705;BME280;69940;53.120;8.764;2023-07-29T02:45:46;100666.00;;;19.08;88.06
79705;BME280;69940;53.120;8.764;2023-07-29T02:48:16;100667.00;;;19.06;88.19
79705;BME280;69940;53.120;8.764;2023-07-29T02:50:46;100667.00;;;19.03;88.16
79705;BME280;69940;53.120;8.764;2023-07-29T02:53:16;100667.00;;;19.01;88.22
79705;BME280;69940;53.120;8.764;2023-07-29T02:55:46;100669.00;;;18.99;88.10
79705;BME280;69940;53.120;8.764;2023-07-29T02:58:16;100670.00;;;18.98;88.15
79705;BME280;69940;53.120;8.764;2023-07-29T03:00:48;100668.00;;;18.98;88.05
79705;BME280;69940;53.120;8.764;2023-07-29T03:03:16;100666.00;;;18.97;88.03
79705;BME280;69940;53.120;8.764;2023-07-29T03:05:46;100666.00;;;18.96;87.98
79705;BME280;69940;53.120;8.764;2023-07-29T03:08:16;100667.00;;;18.95;88.16
79705;BME280;69940;53.120;8.764;2023-07-29T03:10:45;100668.00;;;18.95;88.03
79705;BME280;69940;53.120;8.764;2023-07-29T03:13:16;100669.00;;;18.94;88.02
79705;BME280;69940;53.120;8.764;2023-07-29T03:15:46;100671.00;;;18.93;87.98
79705;BME280;69940;53.120;8.764;2023-07-29T03:18:16;100673.00;;;18.92;87.97
79705;BME280;69940;53.120;8.764;2023-07-29T03:20:46;100676.00;;;18.91;87.99
79705;BME280;69940;53.120;8.764;2023-07-29T03:23:16;100677.00;;;18.90;87.93
79705;BME280;69940;53.120;8.764;2023-07-29T03:25:48;100678.00;;;18.89;87.98
79705;BME280;69940;53.120;8.764;2023-07-29T03:28:16;100680.00;;;18.89;87.92
79705;BME280;69940;53.120;8.764;2023-07-29T03:30:46;100680.00;;;18.88;87.92
79705;BME280;69940;53.120;8.764;2023-07-29T03:33:16;100682.00;;;18.89;87.92
79705;BME280;69940;53.120;8.764;2023-07-29T03:35:46;100682.00;;;18.89;87.92
79705;BME280;69940;53.120;8.764;2023-07-29T03:38:16;100682.00;;;18.90;87.83
79705;BME280;69940;53.120;8.764;2023-07-29T03:40:46;100680.00;;;18.91;87.83
79705;BME280;69940;53.120;8.764;2023-07-29T03:43:16;100679.00;;;18.91;87.86
79705;BME280;69940;53.120;8.764;2023-07-29T03:45:46;100676.00;;;18.92;87.81
79705;BME280;69940;53.120;8.764;2023-07-29T03:48:16;100673.00;;;18.92;87.70
79705;BME280;69940;53.120;8.764;2023-07-29T03:50:46;100669.00;;;18.92;87.86
79705;BME280;69940;53.120;8.764;2023-07-29T03:53:16;100666.00;;;18.92;87.81
79705;BME280;69940;53.120;8.764;2023-07-29T03:55:47;100666.00;;;18.92;87.84
79705;BME280;69940;53.120;8.764;2023-07-29T03:58:16;100667.00;;;18.92;87.87
79705;BME280;69940;53.120;8.764;2023-07-29T04:00:46;100670.00;;;18.93;87.90
79705;BME280;69940;53.120;8.764;2023-07-29T04:03:16;100669.00;;;18.94;87.85
79705;BME280;69940;53.120;8.764;2023-07-29T04:05:46;100664.00;;;18.95;87.81
79705;BME280;69940;53.120;8.764;2023-07-29T04:08:15;100660.00;;;18.97;87.85
79705;BME280;69940;53.120;8.764;2023-07-29T04:10:46;100657.00;;;18.98;87.84
79705;BME280;69940;53.120;8.764;2023-07-29T04:13:16;100655.00;;;18.98;87.85
79705;BME280;69940;53.120;8.764;2023-07-29T04:15:46;100653.00;;;18.99;87.77
79705;BME280;69940;53.120;8.764;2023-07-29T04:18:16;100650.00;;;19.00;87.79
79705;BME280;69940;53.120;8.764;2023-07-29T04:20:46;100648.00;;;19.02;87.81
79705;BME280;69940;53.120;8.764;2023-07-29T04:23:16;100648.00;;;19.04;87.84
79705;BME280;69940;53.120;8.764;2023-07-29T04:25:46;100649.00;;;19.05;87.83
79705;BME280;69940;53.120;8.764;2023-07-29T04:28:16;100650.00;;;19.06;87.77
79705;BME280;69940;53.120;8.764;2023-07-29T04:30:46;100651.00;;;19.08;87.75
79705;BME280;69940;53.120;8.764;2023-07-29T04:33:16;100652.00;;;19.10;87.76
79705;BME280;69940;53.120;8.764;2023-07-29T04:35:46;100652.00;;;19.12;87.82
79705;BME280;69940;53.120;8.764;2023-07-29T04:38:16;100652.00;;;19.14;87.80
79705;BME280;69940;53.120;8.764;2023-07-29T04:40:46;100652.00;;;19.16;87.76
79705;BME280;69940;53.120;8.764;2023-07-29T04:43:16;100652.00;;;19.18;87.74
79705;BME280;69940;53.120;8.764;2023-07-29T04:45:46;100650.00;;;19.19;87.69
79705;BME280;69940;53.120;8.764;2023-07-29T04:48:16;100649.00;;;19.20;87.68
79705;BME280;69940;53.120;8.764;2023-07-29T04:50:46;100646.00;;;19.21;87.74
79705;BME280;69940;53.120;8.764;2023-07-29T04:53:16;100644.00;;;19.22;87.66
79705;BME280;69940;53.120;8.764;2023-07-29T04:55:46;100641.00;;;19.22;87.51
79705;BME280;69940;53.120;8.764;2023-07-29T04:58:16;100638.00;;;19.23;87.46
79705;BME280;69940;53.120;8.764;2023-07-29T05:00:49;100636.00;;;19.24;87.64
79705;BME280;69940;53.120;8.764;2023-07-29T05:03:17;100634.00;;;19.25;87.71
79705;BME280;69940;53.120;8.764;2023-07-29T05:05:46;100634.00;;;19.26;87.59
79705;BME280;69940;53.120;8.764;2023-07-29T05:08:16;100632.00;;;19.27;87.46
79705;BME280;69940;53.120;8.764;2023-07-29T05:10:49;100629.00;;;19.29;87.29
79705;BME280;69940;53.120;8.764;2023-07-29T05:13:16;100628.00;;;19.31;87.19
79705;BME280;69940;53.120;8.764;2023-07-29T05:15:47;100625.00;;;19.33;87.15
79705;BME280;69940;53.120;8.764;2023-07-29T05:18:16;100622.00;;;19.36;86.95
79705;BME280;69940;53.120;8.764;2023-07-29T05:20:46;100621.00;;;19.39;87.02
79705;BME280;69940;53.120;8.764;2023-07-29T05:23:16;100620.00;;;19.42;86.87
79705;BME280;69940;53.120;8.764;2023-07-29T05:25:46;100620.00;;;19.45;86.86
79705;BME280;69940;53.120;8.764;2023-07-29T05:28:16;100619.00;;;19.48;86.75
79705;BME280;69940;53.120;8.764;2023-07-29T05:30:46;100619.00;;;19.51;86.79
79705;BME280;69940;53.120;8.764;2023-07-29T05:33:16;100618.00;;;19.54;86.75
79705;BME280;69940;53.120;8.764;2023-07-29T05:35:48;100618.00;;;19.57;86.72
79705;BME280;69940;53.120;8.764;2023-07-29T05:38:16;100618.00;;;19.60;86.72
79705;BME280;69940;53.120;8.764;2023-07-29T05:40:47;100619.00;;;19.63;86.68
79705;BME280;69940;53.120;8.764;2023-07-29T05:43:16;100620.00;;;19.64;86.66
79705;BME280;69940;53.120;8.764;2023-07-29T05:45:46;100619.00;;;19.65;86.72
79705;BME280;69940;53.120;8.764;2023-07-29T05:48:16;100621.00;;;19.66;86.73
79705;BME280;69940;53.120;8.764;2023-07-29T05:50:46;100621.00;;;19.67;86.79
79705;BME280;69940;53.120;8.764;2023-07-29T05:53:16;100623.00;;;19.67;86.70
79705;BME280;69940;53.120;8.764;2023-07-29T05:55:46;100624.00;;;19.67;86.76
79705;BME280;69940;53.120;8.764;2023-07-29T05:58:16;100626.00;;;19.67;86.79
79705;BME280;69940;53.120;8.764;2023-07-29T06:00:46;100627.00;;;19.66;86.81
79705;BME280;69940;53.120;8.764;2023-07-29T06:03:16;100626.00;;;19.67;86.91
79705;BME280;69940;53.120;8.764;2023-07-29T06:05:46;100626.00;;;19.68;86.93
79705;BME280;69940;53.120;8.764;2023-07-29T06:08:16;100627.00;;;19.69;86.88
79705;BME280;69940;53.120;8.764;2023-07-29T06:10:46;100629.00;;;19.72;86.87
79705;BME280;69940;53.120;8.764;2023-07-29T06:13:16;100630.00;;;19.74;86.75
79705;BME280;69940;53.120;8.764;2023-07-29T06:15:46;100631.00;;;19.78;86.80
79705;BME280;69940;53.120;8.764;2023-07-29T06:18:16;100631.00;;;19.81;86.80
79705;BME280;69940;53.120;8.764;2023-07-29T06:20:46;100633.00;;;19.83;86.87
79705;BME280;69940;53.120;8.764;2023-07-29T06:23:16;100636.00;;;19.85;86.90
79705;BME280;69940;53.120;8.764;2023-07-29T06:25:46;100638.00;;;19.88;86.93
79705;BME280;69940;53.120;8.764;2023-07-29T06:28:16;100640.00;;;19.90;86.88
79705;BME280;69940;53.120;8.764;2023-07-29T06:30:46;100642.00;;;19.93;86.83
79705;BME280;69940;53.120;8.764;2023-07-29T06:33:16;100644.00;;;19.95;86.76
79705;BME280;69940;53.120;8.764;2023-07-29T06:35:46;100646.00;;;19.98;86.70
79705;BME280;69940;53.120;8.764;2023-07-29T06:38:20;100647.00;;;20.01;86.64
79705;BME280;69940;53.120;8.764;2023-07-29T06:40:46;100649.00;;;20.03;86.51
79705;BME280;69940;53.120;8.764;2023-07-29T06:43:16;100651.00;;;20.05;86.48
79705;BME280;69940;53.120;8.764;2023-07-29T06:45:46;100651.00;;;20.07;86.46
79705;BME280;69940;53.120;8.764;2023-07-29T06:48:16;100651.00;;;20.10;86.33
79705;BME280;69940;53.120;8.764;2023-07-29T06:50:46;100650.00;;;20.13;86.16
79705;BME280;69940;53.120;8.764;2023-07-29T06:53:16;100648.00;;;20.15;85.97
79705;BME280;69940;53.120;8.764;2023-07-29T06:55:46;100645.00;;;20.18;85.80
79705;BME280;69940;53.120;8.764;2023-07-29T06:58:16;100644.00;;;20.21;85.80
79705;BME280;69940;53.120;8.764;2023-07-29T07:00:46;100643.00;;;20.24;85.82
79705;BME280;69940;53.120;8.764;2023-07-29T07:03:16;100643.00;;;20.26;85.79
79705;BME280;69940;53.120;8.764;2023-07-29T07:05:46;100641.00;;;20.29;85.33
79705;BME280;69940;53.120;8.764;2023-07-29T07:08:16;100641.00;;;20.33;85.12
79705;BME280;69940;53.120;8.764;2023-07-29T07:10:46;100641.00;;;20.38;85.09
79705;BME280;69940;53.120;8.764;2023-07-29T07:13:16;100641.00;;;20.44;84.77
79705;BME280;69940;53.120;8.764;2023-07-29T07:15:46;100641.00;;;20.49;84.83
79705;BME280;69940;53.120;8.764;2023-07-29T07:18:16;100641.00;;;20.52;84.41
79705;BME280;69940;53.120;8.764;2023-07-29T07:20:48;100643.00;;;20.56;84.40
79705;BME280;69940;53.120;8.764;2023-07-29T07:23:17;100645.00;;;20.60;84.18
79705;BME280;69940;53.120;8.764;2023-07-29T07:25:46;100647.00;;;20.64;84.03
79705;BME280;69940;53.120;8.764;2023-07-29T07:28:16;100648.00;;;20.68;83.91
79705;BME280;69940;53.120;8.764;2023-07-29T07:30:46;100648.00;;;20.71;83.56
79705;BME280;69940;53.120;8.764;2023-07-29T07:33:16;100650.00;;;20.75;83.49
79705;BME280;69940;53.120;8.764;2023-07-29T07:35:46;100651.00;;;20.79;83.31
79705;BME280;69940;53.120;8.764;2023-07-29T07:38:16;100653.00;;;20.83;83.17
79705;BME280;69940;53.120;8.764;2023-07-29T07:40:55;100654.00;;;20.87;82.95
79705;BME280;69940;53.120;8.764;2023-07-29T07:43:16;100655.00;;;20.90;82.50
79705;BME280;69940;53.120;8.764;2023-07-29T07:45:46;100658.00;;;20.91;82.18
79705;BME280;69940;53.120;8.764;2023-07-29T07:48:17;100660.00;;;20.91;81.90
79705;BME280;69940;53.120;8.764;2023-07-29T07:50:46;100660.00;;;20.92;81.64
79705;BME280;69940;53.120;8.764;2023-07-29T07:53:16;100660.00;;;20.93;81.37
79705;BME280;69940;53.120;8.764;2023-07-29T07:55:46;100663.00;;;20.95;81.23
79705;BME280;69940;53.120;8.764;2023-07-29T07:58:16;100665.00;;;20.98;81.20
79705;BME280;69940;53.120;8.764;2023-07-29T08:00:46;100666.00;;;21.01;80.25
79705;BME280;69940;53.120;8.764;2023-07-29T08:03:17;100667.00;;;21.03;79.82
79705;BME280;69940;53.120;8.764;2023-07-29T08:05:46;100666.00;;;21.06;80.06
79705;BME280;69940;53.120;8.764;2023-07-29T08:08:16;100666.00;;;21.08;80.33
79705;BME280;69940;53.120;8.764;2023-07-29T08:10:46;100664.00;;;21.09;79.28
79705;BME280;69940;53.120;8.764;2023-07-29T08:13:16;100661.00;;;21.08;79.07
79705;BME280;69940;53.120;8.764;2023-07-29T08:15:47;100658.00;;;21.08;79.00
79705;BME280;69940;53.120;8.764;2023-07-29T08:18:16;100653.00;;;21.09;78.96
79705;BME280;69940;53.120;8.764;2023-07-29T08:20:52;100650.00;;;21.10;78.97
79705;BME280;69940;53.120;8.764;2023-07-29T08:23:15;100648.00;;;21.12;78.99
79705;BME280;69940;53.120;8.764;2023-07-29T08:25:50;100647.00;;;21.14;78.73
79705;BME280;69940;53.120;8.764;2023-07-29T08:28:16;100647.00;;;21.16;77.89
79705;BME280;69940;53.120;8.764;2023-07-29T08:30:45;100647.00;;;21.18;76.94
79705;BME280;69940;53.120;8.764;2023-07-29T08:33:16;100647.00;;;21.18;76.21
79705;BME280;69940;53.120;8.764;2023-07-29T08:35:46;100648.00;;;21.18;76.16
79705;BME280;69940;53.120;8.764;2023-07-29T08:38:16;100649.00;;;21.18;75.94
79705;BME280;69940;53.120;8.764;2023-07-29T08:43:19;100653.00;;;21.22;75.70
79705;BME280;69940;53.120;8.764;2023-07-29T08:45:46;100655.00;;;21.24;74.87
79705;BME280;69940;53.120;8.764;2023-07-29T08:48:19;100657.00;;;21.28;74.74
79705;BME280;69940;53.120;8.764;2023-07-29T08:50:46;100659.00;;;21.34;74.39
79705;BME280;69940;53.120;8.764;2023-07-29T08:53:16;100658.00;;;21.41;74.45
79705;BME280;69940;53.120;8.764;2023-07-29T08:55:46;100658.00;;;21.47;74.46
79705;BME280;69940;53.120;8.764;2023-07-29T08:58:19;100656.00;;;21.53;74.00
79705;BME280;69940;53.120;8.764;2023-07-29T09:00:46;100654.00;;;21.60;73.81
79705;BME280;69940;53.120;8.764;2023-07-29T09:03:16;100651.00;;;21.67;73.43
79705;BME280;69940;53.120;8.764;2023-07-29T09:05:46;100649.00;;;21.74;73.03
79705;BME280;69940;53.120;8.764;2023-07-29T09:08:16;100648.00;;;21.79;71.19
79705;BME280;69940;53.120;8.764;2023-07-29T09:10:46;100648.00;;;21.84;71.59
79705;BME280;69940;53.120;8.764;2023-07-29T09:13:16;100649.00;;;21.89;71.13
79705;BME280;69940;53.120;8.764;2023-07-29T09:15:46;100649.00;;;21.93;70.66
79705;BME280;69940;53.120;8.764;2023-07-29T09:18:18;100648.00;;;21.97;71.05
79705;BME280;69940;53.120;8.764;2023-07-29T09:20:47;100647.00;;;22.00;71.05
79705;BME280;69940;53.120;8.764;2023-07-29T09:23:16;100646.00;;;22.03;70.87
79705;BME280;69940;53.120;8.764;2023-07-29T09:25:47;100646.00;;;22.03;70.82
79705;BME280;69940;53.120;8.764;2023-07-29T09:28:16;100644.00;;;22.04;71.21
79705;BME280;69940;53.120;8.764;2023-07-29T09:30:46;100644.00;;;22.04;70.61
79705;BME280;69940;53.120;8.764;2023-07-29T09:33:18;100644.00;;;22.04;70.36
79705;BME280;69940;53.120;8.764;2023-07-29T09:35:46;100643.00;;;22.02;69.88
79705;BME280;69940;53.120;8.764;2023-07-29T09:38:16;100642.00;;;22.00;70.02
79705;BME280;69940;53.120;8.764;2023-07-29T09:40:46;100640.00;;;21.98;70.54
79705;BME280;69940;53.120;8.764;2023-07-29T09:43:17;100638.00;;;21.96;70.74
79705;BME280;69940;53.120;8.764;2023-07-29T09:45:46;100637.00;;;21.94;71.23
79705;BME280;69940;53.120;8.764;2023-07-29T09:48:19;100634.00;;;21.93;71.45
79705;BME280;69940;53.120;8.764;2023-07-29T09:50:47;100633.00;;;21.93;71.47
79705;BME280;69940;53.120;8.764;2023-07-29T09:53:16;100633.00;;;21.94;71.76
79705;BME280;69940;53.120;8.764;2023-07-29T09:55:46;100633.00;;;21.98;71.34
79705;BME280;69940;53.120;8.764;2023-07-29T09:58:26;100630.00;;;22.02;70.86
79705;BME280;69940;53.120;8.764;2023-07-29T10:00:46;100627.00;;;22.07;71.05
79705;BME280;69940;53.120;8.764;2023-07-29T10:03:17;100624.00;;;22.11;71.53
79705;BME280;69940;53.120;8.764;2023-07-29T10:05:46;100623.00;;;22.14;71.00
79705;BME280;69940;53.120;8.764;2023-07-29T10:08:16;100623.00;;;22.19;71.47
79705;BME280;69940;53.120;8.764;2023-07-29T10:10:46;100621.00;;;22.25;70.57
79705;BME280;69940;53.120;8.764;2023-07-29T10:13:16;100619.00;;;22.32;70.23
79705;BME280;69940;53.120;8.764;2023-07-29T10:15:46;100616.00;;;22.38;70.05
79705;BME280;69940;53.120;8.764;2023-07-29T10:18:16;100614.00;;;22.45;68.82
79705;BME280;69940;53.120;8.764;2023-07-29T10:20:48;100612.00;;;22.53;68.57
79705;BME280;69940;53.120;8.764;2023-07-29T10:23:17;100611.00;;;22.59;68.29
79705;BME280;69940;53.120;8.764;2023-07-29T10:26:01;100610.00;;;22.63;68.57
79705;BME280;69940;53.120;8.764;2023-07-29T10:28:17;100609.00;;;22.63;68.28
79705;BME280;69940;53.120;8.764;2023-07-29T10:30:46;100610.00;;;22.63;67.97
79705;BME280;69940;53.120;8.764;2023-07-29T10:33:16;100612.00;;;22.62;67.10
79705;BME280;69940;53.120;8.764;2023-07-29T10:35:46;100613.00;;;22.61;66.91
79705;BME280;69940;53.120;8.764;2023-07-29T10:38:16;100613.00;;;22.58;66.85
79705;BME280;69940;53.120;8.764;2023-07-29T10:40:47;100612.00;;;22.55;67.49
79705;BME280;69940;53.120;8.764;2023-07-29T10:43:24;100612.00;;;22.52;67.40
79705;BME280;69940;53.120;8.764;2023-07-29T10:45:46;100613.00;;;22.50;67.56
79705;BME280;69940;53.120;8.764;2023-07-29T10:50:46;100610.00;;;22.47;67.62
79705;BME280;69940;53.120;8.764;2023-07-29T10:53:16;100610.00;;;22.46;66.42
79705;BME280;69940;53.120;8.764;2023-07-29T10:55:45;100608.00;;;22.44;66.47
79705;BME280;69940;53.120;8.764;2023-07-29T10:58:18;100607.00;;;22.43;66.97
79705;BME280;69940;53.120;8.764;2023-07-29T11:00:46;100607.00;;;22.43;66.71
79705;BME280;69940;53.120;8.764;2023-07-29T11:03:16;100606.00;;;22.47;66.42
79705;BME280;69940;53.120;8.764;2023-07-29T11:05:48;100606.00;;;22.52;65.83
79705;BME280;69940;53.120;8.764;2023-07-29T11:08:31;100609.00;;;22.59;66.14
79705;BME280;69940;53.120;8.764;2023-07-29T11:10:58;100609.00;;;22.66;65.09
79705;BME280;69940;53.120;8.764;2023-07-29T11:13:16;100609.00;;;22.71;65.83
79705;BME280;69940;53.120;8.764;2023-07-29T11:15:46;100610.00;;;22.74;65.52
79705;BME280;69940;53.120;8.764;2023-07-29T11:18:16;100611.00;;;22.76;65.12
79705;BME280;69940;53.120;8.764;2023-07-29T11:20:46;100613.00;;;22.77;65.53
79705;BME280;69940;53.120;8.764;2023-07-29T11:23:16;100613.00;;;22.77;65.44
79705;BME280;69940;53.120;8.764;2023-07-29T11:25:45;100615.00;;;22.75;65.90
79705;BME280;69940;53.120;8.764;2023-07-29T11:28:16;100615.00;;;22.75;65.91
79705;BME280;69940;53.120;8.764;2023-07-29T11:30:46;100616.00;;;22.76;65.82
79705;BME280;69940;53.120;8.764;2023-07-29T11:33:17;100619.00;;;22.80;66.05
79705;BME280;69940;53.120;8.764;2023-07-29T11:35:45;100621.00;;;22.82;65.87
79705;BME280;69940;53.120;8.764;2023-07-29T11:38:17;100621.00;;;22.83;65.79
79705;BME280;69940;53.120;8.764;2023-07-29T11:41:01;100622.00;;;22.85;65.85
79705;BME280;69940;53.120;8.764;2023-07-29T11:43:18;100622.00;;;22.88;65.82
79705;BME280;69940;53.120;8.764;2023-07-29T11:45:46;100621.00;;;22.94;65.82
79705;BME280;69940;53.120;8.764;2023-07-29T11:48:16;100619.00;;;23.00;65.41
79705;BME280;69940;53.120;8.764;2023-07-29T11:50:46;100619.00;;;23.05;65.49
79705;BME280;69940;53.120;8.764;2023-07-29T11:53:16;100620.00;;;23.09;65.57
79705;BME280;69940;53.120;8.764;2023-07-29T11:55:49;100626.00;;;23.11;65.40
79705;BME280;69940;53.120;8.764;2023-07-29T11:58:16;100629.00;;;23.10;64.34
79705;BME280;69940;53.120;8.764;2023-07-29T12:00:46;100634.00;;;23.09;64.12
79705;BME280;69940;53.120;8.764;2023-07-29T12:03:18;100635.00;;;23.08;64.22
79705;BME280;69940;53.120;8.764;2023-07-29T12:05:46;100635.00;;;23.06;64.46
79705;BME280;69940;53.120;8.764;2023-07-29T12:08:16;100636.00;;;23.03;64.21
79705;BME280;69940;53.120;8.764;2023-07-29T12:10:46;100637.00;;;23.03;64.83
79705;BME280;69940;53.120;8.764;2023-07-29T12:13:16;100637.00;;;23.04;65.10
79705;BME280;69940;53.120;8.764;2023-07-29T12:15:46;100636.00;;;23.07;64.91
79705;BME280;69940;53.120;8.764;2023-07-29T12:18:16;100633.00;;;23.13;64.27
79705;BME280;69940;53.120;8.764;2023-07-29T12:20:46;100631.00;;;23.19;63.91
79705;BME280;69940;53.120;8.764;2023-07-29T12:23:16;100629.00;;;23.21;63.36
79705;BME280;69940;53.120;8.764;2023-07-29T12:25:46;100628.00;;;23.20;63.58
79705;BME280;69940;53.120;8.764;2023-07-29T12:28:16;100628.00;;;23.22;64.04
79705;BME280;69940;53.120;8.764;2023-07-29T12:30:46;100629.00;;;23.25;63.68
79705;BME280;69940;53.120;8.764;2023-07-29T12:33:35;100628.00;;;23.27;63.61
79705;BME280;69940;53.120;8.764;2023-07-29T12:35:46;100627.00;;;23.26;64.14
79705;BME280;69940;53.120;8.764;2023-07-29T12:38:21;100627.00;;;23.25;65.05
79705;BME280;69940;53.120;8.764;2023-07-29T12:40:46;100627.00;;;23.25;64.88
79705;BME280;69940;53.120;8.764;2023-07-29T12:43:16;100625.00;;;23.25;64.46
79705;BME280;69940;53.120;8.764;2023-07-29T12:45:46;100625.00;;;23.25;64.67
79705;BME280;69940;53.120;8.764;2023-07-29T12:48:16;100625.00;;;23.25;64.36
79705;BME280;69940;53.120;8.764;2023-07-29T12:50:46;100624.00;;;23.24;64.34
79705;BME280;69940;53.120;8.764;2023-07-29T12:53:16;100623.00;;;23.26;64.63
79705;BME280;69940;53.120;8.764;2023-07-29T12:55:46;100623.00;;;23.32;64.40
79705;BME280;69940;53.120;8.764;2023-07-29T12:58:16;100620.00;;;23.38;63.06
79705;BME280;69940;53.120;8.764;2023-07-29T13:00:46;100618.00;;;23.42;62.89
79705;BME280;69940;53.120;8.764;2023-07-29T13:03:16;100614.00;;;23.45;63.39
79705;BME280;69940;53.120;8.764;2023-07-29T13:05:46;100611.00;;;23.48;64.31
79705;BME280;69940;53.120;8.764;2023-07-29T13:08:16;100610.00;;;23.54;63.26
79705;BME280;69940;53.120;8.764;2023-07-29T13:10:46;100608.00;;;23.60;61.78
79705;BME280;69940;53.120;8.764;2023-07-29T13:13:16;100608.00;;;23.69;61.68
79705;BME280;69940;53.120;8.764;2023-07-29T13:15:46;100606.00;;;23.76;61.35